Time;durP1;ratioP1;P1;durP2;ratioP2;P2;SDS_P1;SDS_P2;PMS_P1;PMS_P2;Temp;Humidity;BMP_temperature;BMP_pressure;BME280_temperature;BME280_humidity;BME280_pressure;Samples;Min_cycle;Max_cycle;Signal;HPM_P1;HPM_P2
2022/01/11 00:00:26;;;;;;;5.83;2.57;;;7.10;99.90;;;;;;5088239;28;20211;-92
2022/01/11 00:02:57;;;;;;;4.80;2.60;;;7.10;99.90;;;;;;5086997;28;20313;-93
2022/01/11 00:05:36;;;;;;;3.77;2.60;;;7.10;99.90;;;;;;5170338;22;20279;-90
2022/01/11 00:08:10;;;;;;;3.43;2.40;;;7.10;99.90;;;;;;5107916;28;20202;-93
2022/01/11 00:10:49;;;;;;;2.93;2.20;;;7.10;99.90;;;;;;5107052;28;20214;-93
2022/01/11 00:13:25;;;;;;;3.27;2.43;;;7.00;99.90;;;;;;5106489;28;20237;-92
2022/01/11 00:15:56;;;;;;;3.27;2.37;;;7.00;99.90;;;;;;5108110;28;20203;-92
2022/01/11 00:18:28;;;;;;;4.93;2.47;;;7.00;99.90;;;;;;5105119;28;20202;-93
2022/01/11 00:21:03;;;;;;;4.00;2.90;;;7.00;99.90;;;;;;5110015;28;20199;-93
2022/01/11 00:26:22;;;;;;;6.80;2.43;;;6.90;99.90;;;;;;5106850;28;20227;-93
2022/01/11 00:28:53;;;;;;;3.60;2.67;;;6.80;99.90;;;;;;5109382;28;20210;-93
2022/01/11 00:31:23;;;;;;;3.07;2.63;;;6.80;99.90;;;;;;5113191;28;20292;-93
2022/01/11 00:33:54;;;;;;;2.43;2.07;;;6.80;99.90;;;;;;5112315;28;20217;-94
2022/01/11 00:36:40;;;;;;;3.10;2.53;;;6.80;99.90;;;;;;5108401;28;20240;-93
2022/01/11 00:39:12;;;;;;;3.70;2.67;;;6.80;99.90;;;;;;5115490;28;20210;-95
2022/01/11 00:41:45;;;;;;;4.03;2.70;;;6.80;99.90;;;;;;5102100;28;20211;-93
2022/01/11 00:44:16;;;;;;;4.70;2.80;;;6.80;99.90;;;;;;5117582;28;20195;-94
2022/01/11 00:46:47;;;;;;;3.70;2.80;;;6.80;99.90;;;;;;5099025;28;20235;-94
2022/01/11 00:49:19;;;;;;;5.47;2.43;;;6.80;99.90;;;;;;5087343;28;20218;-93
2022/01/11 00:51:53;;;;;;;4.03;3.07;;;6.80;99.90;;;;;;5092412;28;20196;-93
2022/01/11 00:54:24;;;;;;;3.30;2.60;;;6.90;99.90;;;;;;5094523;28;20196;-93
2022/01/11 00:56:56;;;;;;;4.47;2.70;;;6.80;99.90;;;;;;5092396;28;20215;-94
2022/01/11 00:59:27;;;;;;;3.50;2.40;;;6.80;99.90;;;;;;5100733;28;20217;-93
2022/01/11 01:01:58;;;;;;;2.70;2.30;;;6.80;99.90;;;;;;5112489;28;20207;-93
2022/01/11 01:04:30;;;;;;;2.53;2.03;;;6.80;99.90;;;;;;5106387;28;20241;-94
2022/01/11 01:07:03;;;;;;;3.10;2.47;;;6.80;99.90;;;;;;5097298;28;20328;-93
2022/01/11 01:09:42;;;;;;;3.90;2.27;;;6.80;99.90;;;;;;5098552;28;20256;-93
2022/01/11 01:12:14;;;;;;;2.50;2.00;;;6.80;99.90;;;;;;5103653;28;20202;-93
2022/01/11 01:14:47;;;;;;;1.87;1.77;;;6.80;99.90;;;;;;5110020;28;20191;-94
2022/01/11 01:17:18;;;;;;;2.20;2.00;;;6.80;99.90;;;;;;5103361;28;20680;-93
2022/01/11 01:19:49;;;;;;;2.20;1.87;;;6.80;99.90;;;;;;5098161;28;20580;-93
2022/01/11 01:22:23;;;;;;;2.87;1.73;;;6.80;99.90;;;;;;5087796;28;20264;-92
2022/01/11 01:24:54;;;;;;;1.63;1.30;;;6.80;99.90;;;;;;5104154;28;20251;-92
2022/01/11 01:27:24;;;;;;;2.27;1.50;;;6.70;99.90;;;;;;5113126;28;20234;-90
2022/01/11 01:29:55;;;;;;;2.43;1.77;;;6.80;99.90;;;;;;5115060;28;20199;-93
2022/01/11 01:32:26;;;;;;;4.17;2.03;;;6.70;99.90;;;;;;5114986;28;20203;-92
2022/01/11 01:35:01;;;;;;;1.73;1.50;;;6.70;99.90;;;;;;5110247;28;20202;-93
2022/01/11 01:37:35;;;;;;;2.00;1.40;;;6.70;99.90;;;;;;5111811;28;20210;-92
2022/01/11 01:40:08;;;;;;;2.57;1.50;;;6.70;99.90;;;;;;5115268;28;20663;-93
2022/01/11 01:42:39;;;;;;;2.37;1.50;;;6.70;99.90;;;;;;5111091;28;20240;-93
2022/01/11 01:45:12;;;;;;;2.50;1.60;;;6.70;99.90;;;;;;5106960;28;20214;-94
2022/01/11 01:47:44;;;;;;;1.70;1.50;;;6.70;99.90;;;;;;5107102;22;20247;-84
2022/01/11 01:50:16;;;;;;;1.70;1.57;;;6.70;99.90;;;;;;5114495;28;20235;-91
2022/01/11 01:52:48;;;;;;;2.10;1.77;;;6.70;99.90;;;;;;5116973;28;20211;-94
2022/01/11 01:55:20;;;;;;;2.20;1.80;;;6.70;99.90;;;;;;5116968;28;20190;-92
2022/01/11 01:57:52;;;;;;;1.27;1.13;;;6.70;99.90;;;;;;5117749;28;20212;-91
2022/01/11 02:00:24;;;;;;;1.73;1.60;;;6.70;99.90;;;;;;5119024;28;20194;-92
2022/01/11 02:03:06;;;;;;;2.97;1.93;;;6.70;99.90;;;;;;5117729;28;20191;-93
2022/01/11 02:05:38;;;;;;;1.83;1.50;;;6.80;99.90;;;;;;5118676;28;20182;-93
2022/01/11 02:08:13;;;;;;;5.57;1.93;;;6.80;99.90;;;;;;5114855;28;20235;-94
2022/01/11 02:10:43;;;;;;;1.77;1.67;;;6.70;99.90;;;;;;5246146;22;21401;-85
2022/01/11 02:13:14;;;;;;;2.10;1.60;;;6.80;99.90;;;;;;5058676;28;20221;-93
2022/01/11 02:15:45;;;;;;;2.33;1.87;;;6.80;99.90;;;;;;5052088;28;20262;-93
2022/01/11 02:18:20;;;;;;;2.93;2.30;;;6.70;99.90;;;;;;5050911;28;20209;-93
2022/01/11 02:20:55;;;;;;;4.60;2.80;;;6.70;99.90;;;;;;5050067;28;20227;-93
2022/01/11 02:23:27;;;;;;;3.93;3.30;;;6.70;99.90;;;;;;5050935;28;20215;-93
2022/01/11 02:25:58;;;;;;;5.17;3.87;;;6.80;99.90;;;;;;5050292;28;20197;-92
2022/01/11 02:28:31;;;;;;;4.67;3.83;;;6.70;99.90;;;;;;5050615;28;20240;-94
2022/01/11 02:31:04;;;;;;;6.80;4.97;;;6.70;99.90;;;;;;5052248;28;20222;-94
2022/01/11 02:33:38;;;;;;;4.93;4.30;;;6.70;99.90;;;;;;5052641;28;20208;-94
2022/01/11 02:36:12;;;;;;;4.50;3.93;;;6.70;99.90;;;;;;5051715;28;20204;-94
2022/01/11 02:38:43;;;;;;;3.57;3.17;;;6.70;99.90;;;;;;5050815;28;20204;-94
2022/01/11 02:41:16;;;;;;;3.87;3.10;;;6.70;99.90;;;;;;5052323;28;20216;-93
2022/01/11 02:43:48;;;;;;;4.67;3.50;;;6.70;99.90;;;;;;5051509;28;20276;-93
2022/01/11 02:46:21;;;;;;;3.53;3.03;;;6.80;99.90;;;;;;5061497;28;20222;-93
2022/01/11 02:48:56;;;;;;;3.87;3.17;;;6.80;99.90;;;;;;5071181;28;20319;-93
2022/01/11 02:51:29;;;;;;;3.17;2.47;;;6.70;99.90;;;;;;5071495;28;20207;-94
2022/01/11 02:54:00;;;;;;;2.90;2.50;;;6.70;99.90;;;;;;5072005;28;20238;-94
2022/01/11 02:56:31;;;;;;;5.10;2.87;;;6.70;99.90;;;;;;5069464;28;20265;-92
2022/01/11 02:59:03;;;;;;;4.67;2.90;;;6.70;99.90;;;;;;5071485;28;20201;-93
2022/01/11 03:04:09;;;;;;;3.17;2.70;;;6.70;99.90;;;;;;5140511;22;20242;-93
2022/01/11 03:06:43;;;;;;;3.77;2.80;;;6.70;99.90;;;;;;5111978;28;20213;-93
2022/01/11 03:09:15;;;;;;;2.80;2.40;;;6.70;99.90;;;;;;5115031;28;20254;-93
2022/01/11 03:11:49;;;;;;;4.03;2.40;;;6.70;99.90;;;;;;5113348;28;20213;-94
2022/01/11 03:14:21;;;;;;;2.80;2.30;;;6.70;99.90;;;;;;5110957;28;20240;-94
2022/01/11 03:16:58;;;;;;;2.30;1.63;;;6.70;99.90;;;;;;5417158;22;20235;-92
2022/01/11 03:19:29;;;;;;;2.40;1.77;;;6.70;99.90;;;;;;5071020;28;20204;-92
2022/01/11 03:22:03;;;;;;;2.30;2.00;;;6.70;99.90;;;;;;5068482;28;20223;-92
2022/01/11 03:24:35;;;;;;;2.00;1.80;;;6.70;99.90;;;;;;5069621;28;20594;-94
2022/01/11 03:27:07;;;;;;;2.53;1.67;;;6.70;99.90;;;;;;5071460;28;20227;-92
2022/01/11 03:29:39;;;;;;;2.13;1.57;;;6.80;99.90;;;;;;5064861;28;20285;-92
2022/01/11 03:32:12;;;;;;;1.80;1.50;;;6.80;99.90;;;;;;5058358;28;20227;-93
2022/01/11 03:35:04;;;;;;;1.90;1.60;;;6.80;99.90;;;;;;5057189;28;20258;-94
2022/01/11 03:37:37;;;;;;;2.10;1.80;;;6.70;99.90;;;;;;5058733;28;20246;-94
2022/01/11 03:40:13;;;;;;;4.57;2.10;;;6.70;99.90;;;;;;5059982;28;20200;-93
2022/01/11 03:42:44;;;;;;;2.30;1.70;;;6.80;99.90;;;;;;5065015;28;20274;-93
2022/01/11 03:45:17;;;;;;;2.57;2.00;;;6.80;99.90;;;;;;5055705;28;20246;-93
2022/01/11 03:47:48;;;;;;;2.17;1.50;;;6.80;99.90;;;;;;5065674;28;20227;-94
2022/01/11 03:50:21;;;;;;;2.17;1.83;;;6.70;99.90;;;;;;5068323;28;20196;-92
2022/01/11 03:52:59;;;;;;;3.03;2.20;;;6.80;99.90;;;;;;5070021;28;20211;-93
2022/01/11 03:55:45;;;;;;;2.37;2.17;;;6.80;99.90;;;;;;5059218;28;20216;-93
2022/01/11 03:58:17;;;;;;;2.80;1.60;;;6.80;99.90;;;;;;5064197;28;20688;-95
2022/01/11 04:00:49;;;;;;;2.53;1.60;;;6.80;99.90;;;;;;5069743;28;20209;-95
2022/01/11 04:03:20;;;;;;;1.50;1.20;;;6.80;99.90;;;;;;5076934;28;20195;-93
2022/01/11 04:05:52;;;;;;;3.60;1.43;;;6.80;99.90;;;;;;5081181;28;20184;-93
2022/01/11 04:11:01;;;;;;;3.13;1.40;;;6.90;99.90;;;;;;5509152;22;20214;-88
2022/01/11 04:16:08;;;;;;;1.10;1.00;;;6.90;99.90;;;;;;5385649;22;20224;-93
2022/01/11 04:18:40;;;;;;;2.63;1.40;;;6.90;99.90;;;;;;5080692;28;20192;-92
2022/01/11 04:21:11;;;;;;;1.60;1.40;;;6.90;99.90;;;;;;5080192;28;20200;-92
2022/01/11 04:23:42;;;;;;;1.97;1.40;;;6.90;99.90;;;;;;5076973;28;20302;-93
2022/01/11 04:26:16;;;;;;;1.50;1.23;;;6.90;99.90;;;;;;5077808;28;20205;-91
2022/01/11 04:28:47;;;;;;;4.50;1.73;;;7.00;99.90;;;;;;5078225;28;20246;-93
2022/01/11 04:31:19;;;;;;;2.23;1.63;;;7.00;99.90;;;;;;5077751;28;20184;-93
2022/01/11 04:33:50;;;;;;;3.17;1.47;;;6.90;99.90;;;;;;5077396;28;20192;-91
2022/01/11 04:36:23;;;;;;;2.00;1.50;;;7.00;99.90;;;;;;5077843;28;20249;-92
2022/01/11 04:38:54;;;;;;;1.63;1.30;;;7.00;99.90;;;;;;5058071;28;20208;-92
2022/01/11 04:41:27;;;;;;;1.77;1.33;;;7.00;99.90;;;;;;5057670;28;20204;-93
2022/01/11 04:43:58;;;;;;;2.57;1.40;;;7.00;99.90;;;;;;5056951;28;20214;-93
2022/01/11 04:46:30;;;;;;;2.30;1.20;;;7.00;99.90;;;;;;5054108;28;20235;-93
2022/01/11 04:49:01;;;;;;;1.77;1.23;;;7.00;99.90;;;;;;5054496;28;20239;-93
2022/01/11 04:51:33;;;;;;;1.57;0.93;;;7.00;99.90;;;;;;5053413;28;20204;-94
2022/01/11 04:54:05;;;;;;;2.97;1.13;;;7.10;99.90;;;;;;5053948;28;20215;-93
2022/01/11 04:56:39;;;;;;;1.77;1.00;;;7.10;99.90;;;;;;5046438;28;20228;-92
2022/01/11 04:59:10;;;;;;;1.93;1.00;;;7.10;99.90;;;;;;5052116;28;20201;-93
2022/01/11 05:01:42;;;;;;;1.60;1.20;;;7.10;99.90;;;;;;5068506;28;20259;-93
2022/01/11 05:04:14;;;;;;;1.67;0.90;;;7.10;99.90;;;;;;5073517;28;20208;-92
2022/01/11 05:06:45;;;;;;;1.33;1.20;;;7.10;99.90;;;;;;5071120;28;20249;-91
2022/01/11 05:09:15;;;;;;;1.53;1.20;;;7.10;99.90;;;;;;5071528;28;20235;-93
2022/01/11 05:11:48;;;;;;;1.57;1.20;;;7.10;99.90;;;;;;5067252;28;20261;-91
2022/01/11 05:14:19;;;;;;;1.40;1.20;;;7.10;99.90;;;;;;5067512;28;20208;-93
2022/01/11 05:16:50;;;;;;;2.63;1.50;;;7.20;99.90;;;;;;5057393;28;20212;-93
2022/01/11 05:19:21;;;;;;;2.00;1.37;;;7.20;99.90;;;;;;5068936;28;20277;-93
2022/01/11 05:21:52;;;;;;;1.40;1.27;;;7.20;99.90;;;;;;5062517;28;20271;-92
2022/01/11 05:24:23;;;;;;;1.63;1.13;;;7.20;99.90;;;;;;5060610;28;20677;-92
2022/01/11 05:26:55;;;;;;;2.17;1.07;;;7.20;99.90;;;;;;5060260;28;20231;-92
2022/01/11 05:29:26;;;;;;;2.07;1.30;;;7.20;99.90;;;;;;5062854;28;20731;-94
2022/01/11 05:31:58;;;;;;;1.67;1.27;;;7.20;99.90;;;;;;5062769;28;20223;-94
2022/01/11 05:34:29;;;;;;;1.20;1.10;;;7.30;99.90;;;;;;5068741;28;20204;-93
2022/01/11 05:37:00;;;;;;;1.00;0.90;;;7.30;99.90;;;;;;5062047;28;20227;-94
2022/01/11 05:39:32;;;;;;;1.60;0.97;;;7.30;99.90;;;;;;5072439;28;20220;-92
2022/01/11 05:42:07;;;;;;;1.23;0.90;;;7.30;99.90;;;;;;5060383;28;20718;-93
2022/01/11 05:44:39;;;;;;;1.10;0.90;;;7.30;99.90;;;;;;5060069;28;20736;-92
2022/01/11 05:47:10;;;;;;;2.60;0.90;;;7.30;99.90;;;;;;5058631;28;20255;-93
2022/01/11 05:49:41;;;;;;;1.57;0.90;;;7.30;99.90;;;;;;5059423;28;20267;-92
2022/01/11 05:52:16;;;;;;;2.53;1.10;;;7.30;99.90;;;;;;5048772;28;20205;-93
2022/01/11 05:54:48;;;;;;;3.33;1.03;;;7.30;99.90;;;;;;5040980;28;20244;-92
2022/01/11 05:57:21;;;;;;;1.47;1.07;;;7.30;99.90;;;;;;5039878;28;20651;-94
2022/01/11 05:59:52;;;;;;;0.77;0.70;;;7.40;99.90;;;;;;5038308;28;20237;-93
2022/01/11 06:02:23;;;;;;;2.93;0.87;;;7.40;99.90;;;;;;5047617;28;20208;-94
2022/01/11 06:04:54;;;;;;;1.57;0.93;;;7.40;99.90;;;;;;5063855;28;20205;-94
2022/01/11 06:07:26;;;;;;;0.87;0.70;;;7.40;99.90;;;;;;5065462;28;20219;-94
2022/01/11 06:09:57;;;;;;;1.07;0.97;;;7.40;99.90;;;;;;5062247;28;20255;-94
2022/01/11 06:12:30;;;;;;;0.97;0.63;;;7.40;99.90;;;;;;5059804;28;20263;-93
2022/01/11 06:15:01;;;;;;;2.43;0.77;;;7.40;99.90;;;;;;5063684;28;20219;-94
2022/01/11 06:17:32;;;;;;;1.43;1.00;;;7.40;99.90;;;;;;5058536;28;20239;-93
2022/01/11 06:20:03;;;;;;;1.10;0.93;;;7.40;99.90;;;;;;5057725;28;20295;-94
2022/01/11 06:22:34;;;;;;;1.53;0.93;;;7.40;99.90;;;;;;5063977;28;20717;-93
2022/01/11 06:25:07;;;;;;;1.30;0.80;;;7.50;99.90;;;;;;5059360;28;20292;-95
2022/01/11 06:27:40;;;;;;;1.33;0.90;;;7.50;99.90;;;;;;5075039;28;20216;-94
2022/01/11 06:30:17;;;;;;;0.97;0.77;;;7.50;99.90;;;;;;5076127;28;20236;-94
2022/01/11 06:32:48;;;;;;;2.07;1.33;;;7.40;99.90;;;;;;5074417;28;20212;-94
2022/01/11 06:35:24;;;;;;;3.00;1.60;;;7.40;99.90;;;;;;5068921;28;20233;-94
2022/01/11 06:37:55;;;;;;;2.23;1.30;;;7.50;99.90;;;;;;5070208;28;20216;-94
2022/01/11 06:40:26;;;;;;;2.93;1.43;;;7.50;99.90;;;;;;5060388;28;20224;-94
2022/01/11 06:42:59;;;;;;;1.53;1.30;;;7.50;99.90;;;;;;5071004;28;20542;-92
2022/01/11 06:45:30;;;;;;;1.90;1.13;;;7.40;99.90;;;;;;5071104;28;20208;-89
2022/01/11 06:48:02;;;;;;;3.23;1.40;;;7.40;99.90;;;;;;5051249;28;20273;-93
2022/01/11 06:50:34;;;;;;;1.17;1.07;;;7.40;99.90;;;;;;5065602;28;20307;-92
2022/01/11 06:53:06;;;;;;;1.63;0.90;;;7.40;99.90;;;;;;5073977;28;20237;-93
2022/01/11 06:55:37;;;;;;;1.67;1.17;;;7.40;99.90;;;;;;5074414;28;20219;-92
2022/01/11 06:58:11;;;;;;;2.17;1.17;;;7.40;99.90;;;;;;5066065;28;20204;-93
2022/01/11 07:00:42;;;;;;;2.03;1.13;;;7.40;99.90;;;;;;5059331;28;20200;-93
2022/01/11 07:03:15;;;;;;;1.40;0.80;;;7.40;99.90;;;;;;5048904;28;20220;-93
2022/01/11 07:05:47;;;;;;;1.57;1.20;;;7.40;99.90;;;;;;5038991;28;20261;-95
2022/01/11 07:08:17;;;;;;;2.33;1.07;;;7.40;99.90;;;;;;5037302;28;20225;-93
2022/01/11 07:10:48;;;;;;;2.20;1.10;;;7.40;99.90;;;;;;5037678;28;20351;-93
2022/01/11 07:13:21;;;;;;;2.10;1.00;;;7.30;99.90;;;;;;5038775;28;20291;-93
2022/01/11 07:15:51;;;;;;;3.20;0.70;;;7.40;99.90;;;;;;5039433;28;20252;-93
2022/01/11 07:18:25;;;;;;;0.67;0.60;;;7.30;99.90;;;;;;5038147;28;20238;-93
2022/01/11 07:20:56;;;;;;;1.60;0.90;;;7.30;99.90;;;;;;5040635;28;20208;-91
2022/01/11 07:23:27;;;;;;;0.60;0.57;;;7.30;99.90;;;;;;5037612;28;20295;-92
2022/01/11 07:25:58;;;;;;;2.23;0.80;;;7.20;99.90;;;;;;5041840;28;20272;-92
2022/01/11 07:28:32;;;;;;;2.27;0.63;;;7.20;99.90;;;;;;5036805;28;20207;-93
2022/01/11 07:31:03;;;;;;;2.13;0.70;;;7.20;99.90;;;;;;5039047;28;20232;-93
2022/01/11 07:33:34;;;;;;;0.40;0.40;;;7.20;99.90;;;;;;5045909;28;20303;-93
2022/01/11 07:36:06;;;;;;;1.27;0.63;;;7.20;99.90;;;;;;5043897;28;20208;-93
2022/01/11 07:38:37;;;;;;;2.37;0.60;;;7.20;99.90;;;;;;5039322;28;20214;-93
2022/01/11 07:41:08;;;;;;;0.87;0.60;;;7.20;99.90;;;;;;4698186;28;10000123;-93
2022/01/11 07:43:41;;;;;;;1.10;0.70;;;7.20;99.90;;;;;;5050510;28;20224;-94
2022/01/11 07:46:12;;;;;;;0.57;0.57;;;7.20;99.90;;;;;;5046108;28;20239;-94
2022/01/11 07:48:43;;;;;;;1.90;0.87;;;7.20;99.90;;;;;;5061779;28;20290;-95
2022/01/11 07:51:14;;;;;;;0.87;0.83;;;7.20;99.90;;;;;;5055375;28;20633;-94
2022/01/11 07:53:45;;;;;;;2.60;1.17;;;7.20;99.90;;;;;;5055750;28;20693;-94
2022/01/11 07:56:15;;;;;;;1.07;0.80;;;7.20;99.90;;;;;;5055188;28;20234;-95
2022/01/11 07:58:48;;;;;;;2.57;0.80;;;7.20;99.90;;;;;;5057439;28;20545;-93
2022/01/11 08:01:19;;;;;;;1.80;1.20;;;7.10;99.90;;;;;;5058635;28;20565;-94
2022/01/11 08:03:50;;;;;;;1.73;0.77;;;7.20;99.90;;;;;;5058160;28;20215;-93
2022/01/11 08:06:20;;;;;;;0.97;0.70;;;7.10;99.90;;;;;;5062263;28;20272;-94
2022/01/11 08:08:52;;;;;;;0.83;0.70;;;7.20;99.90;;;;;;5055087;28;20211;-91
2022/01/11 08:11:23;;;;;;;0.77;0.67;;;7.20;99.90;;;;;;5054904;28;20676;-94
2022/01/11 08:13:55;;;;;;;1.60;0.50;;;7.20;99.90;;;;;;5055805;28;20605;-94
2022/01/11 08:16:26;;;;;;;0.57;0.50;;;7.20;99.90;;;;;;5055184;28;20243;-94
2022/01/11 08:18:56;;;;;;;0.70;0.60;;;7.20;99.90;;;;;;5055602;28;20295;-93
2022/01/11 08:21:27;;;;;;;0.60;0.40;;;7.20;99.90;;;;;;5053665;28;20221;-94
2022/01/11 08:23:58;;;;;;;0.63;0.50;;;7.20;99.90;;;;;;5054835;28;20211;-94
2022/01/11 08:26:29;;;;;;;0.50;0.50;;;7.10;99.90;;;;;;5053328;28;20235;-94
2022/01/11 08:29:02;;;;;;;0.67;0.40;;;7.20;99.90;;;;;;5055799;28;20578;-94
2022/01/11 08:31:32;;;;;;;0.47;0.43;;;7.20;99.90;;;;;;5054881;28;20286;-93
2022/01/11 08:34:03;;;;;;;0.40;0.40;;;7.20;99.90;;;;;;5055274;28;20208;-93
2022/01/11 08:36:35;;;;;;;0.70;0.50;;;7.10;99.90;;;;;;5055044;28;20204;-93
2022/01/11 08:39:05;;;;;;;0.40;0.40;;;7.10;99.90;;;;;;5055289;28;20212;-93
2022/01/11 08:41:36;;;;;;;0.87;0.50;;;7.20;99.90;;;;;;5056583;28;20238;-93
2022/01/11 08:44:11;;;;;;;2.03;0.70;;;7.20;99.90;;;;;;5075182;28;20254;-93
2022/01/11 08:46:42;;;;;;;3.70;0.63;;;7.10;99.90;;;;;;5073177;28;20230;-95
2022/01/11 08:49:14;;;;;;;1.77;0.80;;;7.10;99.90;;;;;;5073410;28;20192;-93
2022/01/11 08:51:46;;;;;;;2.33;1.33;;;7.00;99.90;;;;;;5071667;28;20255;-94
2022/01/11 08:54:18;;;;;;;5.87;3.57;;;7.00;99.90;;;;;;5061105;28;20584;-94
2022/01/11 08:56:49;;;;;;;4.40;3.60;;;7.10;99.90;;;;;;5058859;28;20240;-93
2022/01/11 08:59:24;;;;;;;4.03;3.13;;;7.10;99.90;;;;;;5060990;28;20204;-93
2022/01/11 09:01:59;;;;;;;6.30;3.13;;;7.10;99.90;;;;;;5058777;28;20203;-93
2022/01/11 09:04:30;;;;;;;9.50;3.83;;;7.10;99.90;;;;;;5058698;28;20616;-94
2022/01/11 09:07:02;;;;;;;4.60;3.33;;;7.10;99.90;;;;;;5057563;28;20254;-93
2022/01/11 09:09:33;;;;;;;3.97;3.10;;;7.10;99.90;;;;;;5057426;28;20706;-95
2022/01/11 09:12:08;;;;;;;4.93;3.40;;;7.20;99.90;;;;;;5057970;28;20299;-93
2022/01/11 09:14:42;;;;;;;6.83;3.27;;;7.10;99.90;;;;;;5056367;28;20296;-93
2022/01/11 09:17:14;;;;;;;4.43;3.47;;;7.10;99.90;;;;;;5057043;28;20293;-94
2022/01/11 09:19:45;;;;;;;5.77;3.80;;;7.00;99.90;;;;;;5057537;28;20245;-94
2022/01/11 09:22:16;;;;;;;4.33;3.40;;;7.00;99.90;;;;;;5057956;28;20283;-93
2022/01/11 09:24:47;;;;;;;5.40;3.30;;;7.00;99.90;;;;;;5058015;28;20664;-93
2022/01/11 09:27:18;;;;;;;6.07;3.23;;;7.00;99.90;;;;;;5057022;28;20208;-94
2022/01/11 09:29:50;;;;;;;6.07;3.13;;;7.10;99.90;;;;;;5057559;28;20566;-93
2022/01/11 09:32:21;;;;;;;4.77;3.10;;;7.10;99.90;;;;;;5057657;28;20224;-93
2022/01/11 09:34:52;;;;;;;9.47;3.10;;;7.00;99.90;;;;;;5057667;28;20279;-93
2022/01/11 09:37:23;;;;;;;4.23;3.10;;;7.00;99.90;;;;;;5049246;28;20235;-94
2022/01/11 09:39:54;;;;;;;5.47;3.20;;;7.00;99.90;;;;;;5037069;28;20673;-93
2022/01/11 09:42:27;;;;;;;4.03;3.17;;;7.00;99.90;;;;;;5054582;28;20271;-93
2022/01/11 09:45:01;;;;;;;6.57;3.60;;;7.00;99.90;;;;;;5066575;28;20232;-93
2022/01/11 09:47:33;;;;;;;5.83;3.50;;;7.00;99.90;;;;;;5059587;28;20214;-94
2022/01/11 09:50:05;;;;;;;5.00;2.93;;;7.10;99.90;;;;;;5061624;28;20215;-94
2022/01/11 09:52:37;;;;;;;6.37;3.60;;;7.10;99.90;;;;;;5056936;28;20267;-94
2022/01/11 09:55:09;;;;;;;4.53;3.17;;;7.10;99.90;;;;;;5058547;28;20287;-93
2022/01/11 09:57:41;;;;;;;5.33;3.70;;;7.10;99.90;;;;;;5062661;28;20227;-92
2022/01/11 10:00:16;;;;;;;7.27;3.43;;;7.10;99.90;;;;;;5059752;28;20231;-94
2022/01/11 10:02:46;;;;;;;9.93;4.30;;;7.10;99.90;;;;;;5056640;28;20207;-94
2022/01/11 10:05:17;;;;;;;4.70;3.20;;;7.10;99.90;;;;;;5057555;28;20222;-94
2022/01/11 10:07:48;;;;;;;4.93;3.30;;;7.10;99.90;;;;;;5056376;28;20667;-93
2022/01/11 10:10:20;;;;;;;4.30;3.03;;;7.20;99.90;;;;;;5065512;28;20204;-94
2022/01/11 10:12:54;;;;;;;5.57;3.20;;;7.20;99.90;;;;;;5058389;28;20641;-94
2022/01/11 10:15:32;;;;;;;17.83;3.80;;;7.20;99.90;;;;;;5057069;28;20672;-95
2022/01/11 10:18:04;;;;;;;4.73;3.30;;;7.20;99.90;;;;;;5056789;28;20207;-95
2022/01/11 10:20:37;;;;;;;6.03;3.57;;;7.20;99.90;;;;;;5056615;28;20295;-95
2022/01/11 10:23:16;;;;;;;8.47;3.73;;;7.20;99.90;;;;;;5056178;28;20204;-93
2022/01/11 10:25:49;;;;;;;10.07;4.40;;;7.30;99.90;;;;;;5056245;28;20231;-94
2022/01/11 10:28:36;;;;;;;5.77;3.50;;;7.30;99.90;;;;;;5055073;28;20207;-92
2022/01/11 10:31:09;;;;;;;3.93;3.10;;;7.20;99.90;;;;;;5056389;28;20232;-95
2022/01/11 10:34:00;;;;;;;6.20;3.83;;;7.20;99.90;;;;;;5057322;28;20257;-94
2022/01/11 10:36:45;;;;;;;7.20;3.40;;;7.20;99.90;;;;;;5055239;28;20206;-95
2022/01/11 10:39:34;;;;;;;7.07;3.73;;;7.20;99.90;;;;;;5056562;28;20232;-95
2022/01/11 10:42:06;;;;;;;5.70;3.33;;;7.20;99.90;;;;;;5056239;28;20526;-94
2022/01/11 10:44:53;;;;;;;5.57;3.53;;;7.20;99.90;;;;;;5057505;28;20290;-94
2022/01/11 10:47:39;;;;;;;12.87;4.30;;;7.20;99.90;;;;;;5035993;28;20205;-95
2022/01/11 10:50:19;;;;;;;5.03;4.10;;;7.20;99.90;;;;;;5037486;28;20263;-95
2022/01/11 10:52:50;;;;;;;5.80;4.27;;;7.20;99.90;;;;;;5036271;28;20233;-94
2022/01/11 10:55:24;;;;;;;5.60;4.30;;;7.20;99.90;;;;;;5038253;28;20205;-95
2022/01/11 10:57:56;;;;;;;3.77;3.33;;;7.20;99.90;;;;;;5035796;28;20239;-94
2022/01/11 11:00:32;;;;;;;3.87;3.40;;;7.20;99.90;;;;;;5054243;28;20326;-94
2022/01/11 11:03:09;;;;;;;6.97;3.00;;;7.30;99.90;;;;;;5056641;28;20239;-94
2022/01/11 11:05:41;;;;;;;4.03;2.83;;;7.30;99.90;;;;;;5055314;28;20192;-93
2022/01/11 11:08:16;;;;;;;2.93;2.27;;;7.30;99.90;;;;;;5051404;28;20227;-93
2022/01/11 11:10:50;;;;;;;4.47;2.67;;;7.30;99.90;;;;;;5050033;28;20306;-93
2022/01/11 11:13:27;;;;;;;2.60;2.40;;;7.30;99.90;;;;;;5036548;28;20324;-93
2022/01/11 11:16:00;;;;;;;3.87;2.50;;;7.30;99.90;;;;;;5036850;28;20307;-93
2022/01/11 11:18:35;;;;;;;2.93;2.37;;;7.30;99.90;;;;;;5038481;28;20204;-94
2022/01/11 11:21:17;;;;;;;3.13;2.70;;;7.40;99.90;;;;;;5035493;28;20235;-94
2022/01/11 11:23:50;;;;;;;3.63;2.53;;;7.40;99.90;;;;;;5035931;28;20239;-93
2022/01/11 11:26:21;;;;;;;4.47;2.30;;;7.40;99.90;;;;;;5035284;28;20244;-93
2022/01/11 11:28:52;;;;;;;2.83;2.20;;;7.40;99.90;;;;;;5035135;28;20216;-93
2022/01/11 11:31:24;;;;;;;1.90;1.60;;;7.40;99.90;;;;;;5037079;28;20209;-93
2022/01/11 11:33:57;;;;;;;3.90;1.87;;;7.40;99.90;;;;;;5035431;28;20240;-94
2022/01/11 11:36:28;;;;;;;1.90;1.30;;;7.40;99.90;;;;;;5035120;28;20762;-93
2022/01/11 11:39:06;;;;;;;1.47;1.37;;;7.40;99.90;;;;;;5034953;28;20375;-93
2022/01/11 11:41:41;;;;;;;2.30;1.57;;;7.30;99.90;;;;;;5035783;28;20212;-94
2022/01/11 11:44:13;;;;;;;2.13;1.30;;;7.30;99.90;;;;;;5036164;28;20243;-94
2022/01/11 11:46:45;;;;;;;3.10;1.53;;;7.30;99.90;;;;;;5051435;28;20246;-93
2022/01/11 11:49:39;;;;;;;1.73;1.30;;;7.30;99.90;;;;;;5059729;28;20292;-92
2022/01/11 11:52:19;;;;;;;1.60;1.30;;;7.40;99.90;;;;;;5061088;28;20239;-93
2022/01/11 11:54:52;;;;;;;4.50;1.40;;;7.40;99.90;;;;;;5056344;28;20204;-93
2022/01/11 11:57:24;;;;;;;2.83;1.80;;;7.40;99.90;;;;;;5055954;28;20208;-94
2022/01/11 12:00:03;;;;;;;2.23;1.70;;;7.40;99.90;;;;;;5111355;22;20242;-93
2022/01/11 12:02:38;;;;;;;2.47;1.70;;;7.40;99.90;;;;;;5095747;28;20203;-93
2022/01/11 12:05:12;;;;;;;8.57;2.50;;;7.50;99.90;;;;;;5096767;28;20205;-94
2022/01/11 12:07:45;;;;;;;2.33;1.53;;;7.50;99.90;;;;;;5096102;28;20244;-94
2022/01/11 12:10:26;;;;;;;8.10;2.17;;;7.70;99.90;;;;;;5097500;28;20242;-93
2022/01/11 12:12:58;;;;;;;1.50;1.40;;;7.70;99.90;;;;;;5096823;28;20788;-94
2022/01/11 12:15:41;;;;;;;2.20;1.87;;;7.80;99.90;;;;;;5104932;28;20719;-93
2022/01/11 12:18:15;;;;;;;2.67;1.60;;;7.80;99.90;;;;;;5114074;27;20202;-94
2022/01/11 12:20:51;;;;;;;1.63;1.40;;;7.90;99.90;;;;;;5115529;28;20202;-96
2022/01/11 12:23:53;;;;;;;2.00;1.33;;;7.90;99.90;;;;;;5105926;28;20256;-94
2022/01/11 12:26:26;;;;;;;2.17;1.40;;;7.90;99.90;;;;;;5098898;28;20237;-94
2022/01/11 12:29:23;;;;;;;1.90;1.50;;;8.00;99.90;;;;;;5186696;22;20795;-93
2022/01/11 12:31:56;;;;;;;3.33;1.70;;;8.10;99.90;;;;;;5059155;28;20236;-93
2022/01/11 12:34:56;;;;;;;1.60;1.07;;;8.10;99.90;;;;;;5058680;28;20311;-93
2022/01/11 12:37:32;;;;;;;1.10;1.00;;;8.20;99.90;;;;;;5055317;28;20236;-93
2022/01/11 12:40:13;;;;;;;1.07;0.97;;;8.20;99.90;;;;;;5058198;28;20199;-94
2022/01/11 12:42:56;;;;;;;1.27;1.17;;;8.20;99.90;;;;;;5058097;28;20232;-92
2022/01/11 12:46:01;;;;;;;3.23;1.27;;;8.20;99.90;;;;;;5058114;28;20931;-93
2022/01/11 12:49:03;;;;;;;5.37;1.37;;;8.20;99.90;;;;;;5054068;28;20217;-94
2022/01/11 12:51:49;;;;;;;1.10;1.00;;;8.20;99.90;;;;;;5058460;28;20238;-94
2022/01/11 12:54:30;;;;;;;2.30;0.93;;;8.30;99.90;;;;;;5058363;28;20421;-94
2022/01/11 12:57:03;;;;;;;1.43;0.90;;;8.20;99.90;;;;;;5057335;28;20252;-94
2022/01/11 12:59:36;;;;;;;2.07;0.90;;;8.30;99.90;;;;;;5060237;28;20642;-93
2022/01/11 13:02:11;;;;;;;0.70;0.70;;;8.30;99.90;;;;;;5057771;28;20250;-93
2022/01/11 13:04:51;;;;;;;1.03;0.80;;;8.30;99.90;;;;;;5057334;28;20206;-93
2022/01/11 13:07:25;;;;;;;1.20;0.90;;;8.40;99.90;;;;;;5058276;28;20227;-93
2022/01/11 13:10:18;;;;;;;2.30;1.10;;;8.40;99.90;;;;;;5062581;28;20204;-94
2022/01/11 13:12:54;;;;;;;1.40;1.07;;;8.50;99.90;;;;;;5059066;28;20270;-94
2022/01/11 13:15:32;;;;;;;1.53;1.00;;;8.60;99.90;;;;;;5065358;28;20227;-93
2022/01/11 13:18:09;;;;;;;1.40;1.03;;;8.80;99.90;;;;;;5077262;28;20195;-93
2022/01/11 13:20:53;;;;;;;2.07;1.00;;;8.90;99.90;;;;;;5077214;28;20208;-93
2022/01/11 13:23:28;;;;;;;1.17;1.00;;;9.00;99.90;;;;;;5063905;28;20208;-91
2022/01/11 13:26:02;;;;;;;3.33;1.03;;;9.10;99.90;;;;;;5058477;28;20243;-93
2022/01/11 13:28:39;;;;;;;0.80;0.80;;;9.10;99.90;;;;;;5057087;28;20215;-92
2022/01/11 13:31:13;;;;;;;1.70;0.90;;;9.30;99.90;;;;;;5066973;28;20246;-93
2022/01/11 13:33:48;;;;;;;3.83;1.00;;;9.30;99.90;;;;;;5056657;28;20345;-93
2022/01/11 13:36:20;;;;;;;1.57;0.90;;;9.40;99.90;;;;;;5055735;28;20207;-93
2022/01/11 13:38:55;;;;;;;1.97;1.00;;;9.50;99.90;;;;;;5057603;28;20251;-93
2022/01/11 13:41:32;;;;;;;2.27;0.90;;;9.50;99.90;;;;;;5057661;28;20254;-92